Decoded Metar for LIRZ (PERUGIA in ITALY) (IATA:PEG) | Meteo·Mobile Aviation Weather
aviador You're here:

LIRZ Decoded Metar

PERUGIA in ITALY
Report Time2018-11-21 17:50:00
UTC Time2018-11-21 18:15:19
Flight Rules vfr VFR
Wind340° at 03 kt
W.Decomp.*RWY 01: 2.5 kt HW 1.6 kt LCW
W.Rank340° ranks 7
Current wind is below 340° avg. (6.1)
Visibility9999 m
Phenomena:N/A
Clouds:Broken 050 Hf
Expected CloudBase > 400 ft AGL from Temp-Dew spread
Ceiling5,000 ft
Temp11°C (ISA -3)
Dew Point10°C (94% RH)
AAT10.0°C
QNH1015 hPa
Density Alt456 ft
Elevation673 ft
Report Wrong Elevation
Raw Report
LIRZ 211750Z 34003KT 9999 BKN050 11/10 Q1015=

Extra information for LIRZ:More info

Metar Taf Metar & Taf Last 4 Metars F.Rules Stats Wind Profile Meteogram Temp Stats Airport Information Weather charts Add Link Nearby VenuesMetar ALERT Operation Metar Decoded Social comments